Terminal Aerodrome Forecast
Issued by NWS Spokane, WA

Home | Current Version | Previous Version | Text Only | Print | Product List | Glossary On
Versions: 1 2 3 4 5 6 7 8 9 10 11 12 13 14 15
000
FTUS46 KOTX 280520
TAFEAT
TAF
KEAT 280520Z 2806/2906 32011KT P6SM SKC
     FM280800 30011KT P6SM SCT250
     FM282000 14005KT P6SM BKN250
     FM290200 32007KT P6SM SKC=

USA.gov is the U.S. government's official web portal to all federal, state and local government web resources and services.